Time;durP1;ratioP1;P1;durP2;ratioP2;P2;SDS_P1;SDS_P2;PMS_P1;PMS_P2;Temp;Humidity;BMP_temperature;BMP_pressure;BME280_temperature;BME280_humidity;BME280_pressure;Samples;Min_cycle;Max_cycle;Signal;HPM_P1;HPM_P2
2023/06/15 00:02:23;;;;;;;76.45;52.95;;;21.40;58.40;;;;;;4939652;28;89800;-72
2023/06/15 00:04:49;;;;;;;75.40;52.47;;;21.50;58.50;;;;;;4935307;28;90172;-71
2023/06/15 00:07:15;;;;;;;75.65;52.83;;;21.50;58.70;;;;;;4933230;28;89880;-72
2023/06/15 00:09:41;;;;;;;75.78;52.92;;;21.40;58.50;;;;;;4939731;28;88846;-72
2023/06/15 00:12:09;;;;;;;76.28;52.75;;;21.40;58.70;;;;;;4939693;28;89505;-71
2023/06/15 00:14:35;;;;;;;75.22;52.65;;;21.40;58.90;;;;;;4942903;28;89521;-71
2023/06/15 00:17:01;;;;;;;76.22;52.72;;;21.40;59.00;;;;;;4942646;28;90683;-73
2023/06/15 00:19:28;;;;;;;75.35;52.72;;;21.40;58.90;;;;;;4937447;28;90667;-69
2023/06/15 00:21:54;;;;;;;76.28;52.95;;;21.40;59.10;;;;;;4935342;28;91053;-71
2023/06/15 00:24:20;;;;;;;77.43;52.65;;;21.30;59.00;;;;;;4937935;28;89586;-72
2023/06/15 00:26:45;;;;;;;76.25;53.00;;;21.30;59.20;;;;;;4938363;28;90333;-72
2023/06/15 00:29:11;;;;;;;76.25;52.90;;;21.30;59.80;;;;;;4941759;28;89922;-72
2023/06/15 00:31:37;;;;;;;75.90;52.92;;;21.30;59.20;;;;;;4937478;28;89873;-72
2023/06/15 00:34:03;;;;;;;75.65;52.80;;;21.30;59.40;;;;;;4937695;28;89682;-72
2023/06/15 00:36:29;;;;;;;75.43;52.65;;;21.30;59.30;;;;;;4933687;28;90621;-71
2023/06/15 00:38:55;;;;;;;75.30;52.78;;;21.20;59.50;;;;;;4937545;28;90738;-72
2023/06/15 00:41:21;;;;;;;76.70;52.65;;;21.20;59.40;;;;;;4937598;28;91250;-72
2023/06/15 00:43:46;;;;;;;74.22;52.35;;;21.20;59.50;;;;;;4935609;28;94401;-72
2023/06/15 00:46:13;;;;;;;75.05;52.65;;;21.20;59.70;;;;;;4930629;28;89788;-69
2023/06/15 00:48:39;;;;;;;75.32;52.63;;;21.20;59.70;;;;;;4935902;28;89551;-71
2023/06/15 00:51:07;;;;;;;75.30;52.72;;;21.10;59.60;;;;;;4926743;28;94156;-72
2023/06/15 00:53:32;;;;;;;75.75;52.88;;;21.10;59.80;;;;;;4935591;28;93439;-72
2023/06/15 00:55:59;;;;;;;76.22;52.60;;;21.10;59.90;;;;;;4933051;28;90642;-71
2023/06/15 00:58:25;;;;;;;74.95;52.45;;;21.10;60.20;;;;;;4939176;28;92051;-71
2023/06/15 01:00:54;;;;;;;77.05;52.75;;;21.00;60.00;;;;;;4936139;28;89826;-71
2023/06/15 01:03:20;;;;;;;75.43;52.63;;;21.00;60.10;;;;;;4929079;28;90062;-70
2023/06/15 01:05:47;;;;;;;76.55;52.53;;;21.00;60.50;;;;;;4933031;28;92920;-70
2023/06/15 01:08:15;;;;;;;74.78;52.45;;;21.00;60.40;;;;;;4932649;28;89762;-71
2023/06/15 01:10:42;;;;;;;74.22;52.15;;;21.00;60.50;;;;;;4934611;28;89826;-71
2023/06/15 01:13:12;;;;;;;76.30;52.78;;;20.90;60.70;;;;;;4928643;28;89723;-70
2023/06/15 01:15:38;;;;;;;75.38;52.67;;;20.90;60.60;;;;;;4932670;28;90198;-70
2023/06/15 01:18:05;;;;;;;74.97;52.65;;;20.90;60.90;;;;;;4932831;28;90454;-71
2023/06/15 01:20:38;;;;;;;74.50;52.35;;;20.90;60.60;;;;;;4934657;28;89793;-72
2023/06/15 01:23:33;;;;;;;74.75;52.25;;;20.90;60.80;;;;;;4935853;28;92053;-72
2023/06/15 01:26:05;;;;;;;76.07;52.80;;;20.90;60.60;;;;;;4911654;28;90262;-71
2023/06/15 01:28:33;;;;;;;74.00;52.28;;;20.80;60.80;;;;;;4937783;28;89395;-72
2023/06/15 01:31:00;;;;;;;75.18;52.40;;;20.80;60.90;;;;;;4939173;28;91393;-70
2023/06/15 01:33:25;;;;;;;75.35;52.15;;;20.80;61.10;;;;;;4931145;28;91080;-71
2023/06/15 01:35:51;;;;;;;75.15;52.30;;;20.80;61.00;;;;;;4932588;28;89852;-69
2023/06/15 01:38:23;;;;;;;74.65;52.05;;;20.70;61.20;;;;;;4927719;28;91543;-70
2023/06/15 01:40:51;;;;;;;77.60;52.25;;;20.70;61.70;;;;;;4918455;28;91247;-71
2023/06/15 01:43:30;;;;;;;75.50;52.38;;;20.70;61.40;;;;;;4929973;28;89601;-71
2023/06/15 01:45:57;;;;;;;73.20;51.92;;;20.70;62.00;;;;;;4923164;28;89645;-71
2023/06/15 01:48:25;;;;;;;74.25;52.10;;;20.70;61.30;;;;;;4923577;28;89281;-71
2023/06/15 01:50:52;;;;;;;74.07;52.38;;;20.60;61.80;;;;;;4928667;28;90327;-69
2023/06/15 01:53:18;;;;;;;75.32;52.10;;;20.70;61.30;;;;;;4928567;28;92095;-70
2023/06/15 01:55:44;;;;;;;74.03;52.50;;;20.60;61.60;;;;;;4923922;28;90980;-68
2023/06/15 01:58:15;;;;;;;75.00;52.47;;;20.60;62.00;;;;;;4931468;28;91825;-71
2023/06/15 02:00:41;;;;;;;;;;;20.60;62.40;;;;;;4928311;28;90189;-69
2023/06/15 02:03:06;;;;;;;74.18;52.15;;;20.60;61.90;;;;;;4926787;28;90519;-69
2023/06/15 02:05:38;;;;;;;74.45;52.35;;;20.60;61.90;;;;;;4932406;28;91106;-71
2023/06/15 02:08:08;;;;;;;74.50;52.22;;;20.60;62.10;;;;;;4919796;28;94295;-69
2023/06/15 02:10:34;;;;;;;74.05;52.15;;;20.50;62.60;;;;;;4928303;28;90635;-69
2023/06/15 02:13:00;;;;;;;74.07;52.17;;;20.60;62.40;;;;;;4925655;28;90647;-71
2023/06/15 02:15:26;;;;;;;74.22;52.33;;;20.50;61.70;;;;;;4924661;28;91826;-72
2023/06/15 02:18:00;;;;;;;75.50;52.22;;;20.50;61.90;;;;;;4927683;28;89733;-71
2023/06/15 02:20:27;;;;;;;73.35;52.05;;;20.50;62.20;;;;;;4921791;28;90969;-71
2023/06/15 02:22:57;;;;;;;73.85;52.20;;;20.40;62.70;;;;;;4923716;28;90658;-71
2023/06/15 02:25:24;;;;;;;75.40;52.47;;;20.40;62.30;;;;;;4919273;28;91073;-71
2023/06/15 02:27:50;;;;;;;73.03;51.83;;;20.40;62.60;;;;;;4922676;28;90660;-69
2023/06/15 02:30:16;;;;;;;73.57;52.05;;;20.40;63.00;;;;;;4923765;28;91276;-70
2023/06/15 02:32:42;;;;;;;74.78;52.25;;;20.40;62.60;;;;;;4929384;28;90802;-71
2023/06/15 02:35:11;;;;;;;74.18;52.17;;;20.40;63.90;;;;;;4931218;28;89917;-71
2023/06/15 02:37:41;;;;;;;73.47;52.20;;;20.30;62.80;;;;;;4926963;28;90447;-71
2023/06/15 02:40:08;;;;;;;76.10;52.40;;;20.30;62.90;;;;;;4929778;28;89545;-70
2023/06/15 02:42:35;;;;;;;74.25;52.22;;;20.30;62.90;;;;;;4934157;28;89491;-71
2023/06/15 02:45:02;;;;;;;73.97;52.45;;;20.30;63.30;;;;;;4926608;28;91946;-71
2023/06/15 02:47:31;;;;;;;73.72;52.28;;;20.30;63.20;;;;;;4933073;28;94959;-71
2023/06/15 02:49:59;;;;;;;73.82;52.03;;;20.30;63.10;;;;;;4928774;28;90252;-70
2023/06/15 02:52:26;;;;;;;73.07;52.15;;;20.30;62.70;;;;;;4935223;28;89806;-72
2023/06/15 02:54:52;;;;;;;73.53;52.28;;;20.20;63.40;;;;;;4933238;28;90682;-71
2023/06/15 02:57:17;;;;;;;73.00;52.13;;;20.30;63.90;;;;;;4934499;28;90044;-70
2023/06/15 02:59:44;;;;;;;73.65;52.35;;;20.20;63.20;;;;;;4935701;28;90072;-72
2023/06/15 03:02:10;;;;;;;73.45;52.17;;;20.20;63.60;;;;;;4933504;28;88980;-71
2023/06/15 03:04:44;;;;;;;75.88;52.47;;;20.20;64.20;;;;;;4939092;28;90772;-71
2023/06/15 03:07:16;;;;;;;73.53;52.13;;;20.10;63.70;;;;;;4935496;28;89867;-71
2023/06/15 03:09:45;;;;;;;72.93;52.05;;;20.10;63.50;;;;;;4940907;28;90748;-72
2023/06/15 03:12:11;;;;;;;75.43;52.15;;;20.10;63.80;;;;;;4939316;28;89790;-69
2023/06/15 03:14:37;;;;;;;73.38;52.08;;;20.10;63.50;;;;;;4939394;28;89727;-69
2023/06/15 03:17:04;;;;;;;74.00;52.20;;;20.10;63.80;;;;;;4933320;28;90844;-69
2023/06/15 03:19:30;;;;;;;72.88;51.92;;;20.00;64.40;;;;;;4938010;28;89890;-69
2023/06/15 03:21:57;;;;;;;74.00;52.00;;;20.10;63.70;;;;;;4933846;28;89853;-71
2023/06/15 03:24:25;;;;;;;73.95;52.13;;;20.00;63.90;;;;;;4940638;28;90040;-71
2023/06/15 03:26:51;;;;;;;74.10;52.35;;;20.00;63.40;;;;;;4940361;28;88838;-69
2023/06/15 03:29:17;;;;;;;74.57;52.85;;;20.00;64.10;;;;;;4933982;28;89522;-70
2023/06/15 03:31:42;;;;;;;74.22;52.40;;;20.00;64.50;;;;;;4939331;28;90968;-71
2023/06/15 03:34:09;;;;;;;73.72;52.42;;;19.90;63.90;;;;;;4931027;28;93080;-71
2023/06/15 03:36:35;;;;;;;73.18;52.20;;;19.90;63.20;;;;;;4932868;28;90018;-68
2023/06/15 03:39:02;;;;;;;75.22;52.20;;;19.90;64.40;;;;;;4935327;28;89810;-70
2023/06/15 03:41:28;;;;;;;73.93;52.40;;;19.80;64.50;;;;;;4940133;28;90373;-71
2023/06/15 03:43:53;;;;;;;73.93;52.08;;;19.80;64.70;;;;;;4941642;28;89532;-71
2023/06/15 03:46:19;;;;;;;75.72;52.53;;;19.80;65.10;;;;;;4939679;28;89925;-71
2023/06/15 03:48:45;;;;;;;73.45;52.10;;;19.80;63.60;;;;;;4937625;28;89672;-70
2023/06/15 03:51:11;;;;;;;73.15;51.90;;;19.80;64.90;;;;;;4938423;28;89555;-72
2023/06/15 03:53:37;;;;;;;73.13;52.03;;;19.80;65.40;;;;;;4935283;28;90302;-69
2023/06/15 03:56:03;;;;;;;74.68;52.35;;;19.80;64.70;;;;;;4941479;28;90846;-68
2023/06/15 03:58:28;;;;;;;73.30;52.42;;;19.70;63.70;;;;;;4936490;28;90710;-70
2023/06/15 04:00:56;;;;;;;73.07;52.05;;;19.70;64.10;;;;;;4937638;28;90122;-69
2023/06/15 04:03:22;;;;;;;74.57;52.13;;;19.60;65.60;;;;;;4936282;28;90043;-69
2023/06/15 04:05:49;;;;;;;73.07;52.17;;;19.60;64.60;;;;;;4940110;28;90033;-72
2023/06/15 04:08:14;;;;;;;73.82;52.10;;;19.60;65.00;;;;;;4925269;28;91425;-72
2023/06/15 04:10:40;;;;;;;73.45;52.17;;;19.60;64.70;;;;;;4942828;28;89555;-69
2023/06/15 04:13:06;;;;;;;72.75;52.05;;;19.60;64.60;;;;;;4937077;28;90671;-71
2023/06/15 04:15:31;;;;;;;72.70;52.03;;;19.60;64.60;;;;;;4939272;28;89069;-71
2023/06/15 04:18:00;;;;;;;75.35;52.13;;;19.60;63.70;;;;;;4935086;28;90218;-72
2023/06/15 04:20:30;;;;;;;73.65;52.35;;;19.70;64.20;;;;;;4934904;28;89921;-71
2023/06/15 04:22:59;;;;;;;73.80;52.25;;;19.70;64.10;;;;;;4937666;28;92196;-72
2023/06/15 04:25:27;;;;;;;72.88;52.00;;;19.70;63.50;;;;;;4935465;28;91987;-69
2023/06/15 04:27:53;;;;;;;74.45;52.45;;;19.80;63.40;;;;;;4939368;28;90052;-72
2023/06/15 04:30:24;;;;;;;73.15;52.20;;;19.80;63.00;;;;;;4937366;28;90464;-71
2023/06/15 04:32:57;;;;;;;74.50;52.30;;;19.80;63.00;;;;;;4941085;28;90257;-68
2023/06/15 04:35:28;;;;;;;73.25;52.28;;;19.80;63.10;;;;;;4934300;28;89964;-71
2023/06/15 04:37:58;;;;;;;75.18;52.40;;;19.90;62.90;;;;;;4935943;28;95236;-72
2023/06/15 04:40:24;;;;;;;73.60;52.22;;;19.90;63.20;;;;;;4938062;28;89094;-69
2023/06/15 04:42:50;;;;;;;73.15;52.33;;;20.00;62.70;;;;;;4935868;28;90125;-69
2023/06/15 04:45:16;;;;;;;76.82;52.22;;;20.00;63.50;;;;;;4932396;28;90001;-72
2023/06/15 04:47:42;;;;;;;72.68;52.03;;;20.00;62.70;;;;;;4931197;28;96312;-69
2023/06/15 04:50:09;;;;;;;73.40;52.00;;;20.00;62.70;;;;;;4919139;28;91672;-72
2023/06/15 04:52:35;;;;;;;73.82;52.22;;;20.00;63.00;;;;;;4938829;28;89571;-70
2023/06/15 04:55:01;;;;;;;74.15;52.00;;;20.10;62.80;;;;;;4930062;28;90227;-70
2023/06/15 04:57:27;;;;;;;73.68;52.25;;;20.10;63.50;;;;;;4937425;28;89900;-71
2023/06/15 04:59:52;;;;;;;73.25;52.22;;;20.10;63.10;;;;;;4936546;28;90014;-71
2023/06/15 05:02:18;;;;;;;75.55;52.22;;;20.10;63.30;;;;;;4933170;28;89583;-71
2023/06/15 05:04:44;;;;;;;73.82;52.25;;;20.10;63.10;;;;;;4935444;28;90889;-72
2023/06/15 05:07:09;;;;;;;73.72;52.35;;;20.20;63.80;;;;;;4938202;28;90303;-73
2023/06/15 05:09:35;;;;;;;73.97;52.35;;;20.20;62.80;;;;;;4936092;28;89962;-73
2023/06/15 05:12:01;;;;;;;77.95;52.83;;;20.30;66.20;;;;;;4935227;28;90916;-70
2023/06/15 05:14:26;;;;;;;76.03;52.97;;;20.30;63.60;;;;;;4929167;28;92808;-73
2023/06/15 05:16:53;;;;;;;76.07;53.47;;;20.40;61.70;;;;;;4922910;28;89764;-72
2023/06/15 05:19:20;;;;;;;76.00;53.15;;;20.40;60.40;;;;;;4935139;28;90410;-71
2023/06/15 05:21:49;;;;;;;76.63;53.50;;;20.40;59.70;;;;;;4934366;28;90270;-71
2023/06/15 05:24:15;;;;;;;81.18;53.28;;;20.40;59.10;;;;;;4937508;28;90311;-71
2023/06/15 05:26:40;;;;;;;77.68;53.67;;;20.40;58.90;;;;;;4933921;28;91193;-72
2023/06/15 05:29:06;;;;;;;77.13;53.58;;;20.40;58.70;;;;;;4937496;28;90543;-71
2023/06/15 05:31:33;;;;;;;77.68;53.47;;;20.40;58.50;;;;;;4932275;28;93249;-71
2023/06/15 05:33:58;;;;;;;77.55;53.38;;;20.40;58.60;;;;;;4933508;28;90138;-71
2023/06/15 05:36:30;;;;;;;78.28;53.38;;;20.40;58.70;;;;;;4929591;28;90984;-72
2023/06/15 05:38:56;;;;;;;77.25;53.25;;;20.50;58.20;;;;;;4935868;28;90168;-72
2023/06/15 05:41:22;;;;;;;75.47;53.25;;;20.50;58.30;;;;;;4934877;28;90263;-71
2023/06/15 05:43:48;;;;;;;76.97;53.67;;;20.50;58.20;;;;;;4916149;28;92869;-71
2023/06/15 05:46:15;;;;;;;78.95;53.95;;;20.50;58.40;;;;;;4928603;28;89482;-71
2023/06/15 05:48:40;;;;;;;75.70;53.47;;;20.50;58.30;;;;;;4940559;28;89973;-71
2023/06/15 05:51:06;;;;;;;76.80;53.88;;;20.50;58.20;;;;;;4939058;28;90042;-71
2023/06/15 05:53:31;;;;;;;76.20;53.55;;;20.60;58.30;;;;;;4937618;28;89253;-71
2023/06/15 05:55:57;;;;;;;78.25;53.72;;;20.60;58.10;;;;;;4936956;28;89296;-72
2023/06/15 05:58:22;;;;;;;77.55;53.47;;;20.70;58.20;;;;;;4927694;28;95513;-70
2023/06/15 06:00:48;;;;;;;78.40;53.58;;;20.70;58.30;;;;;;4930112;28;90977;-68
2023/06/15 06:03:14;;;;;;;78.75;53.28;;;20.70;58.10;;;;;;4932083;28;89834;-72
2023/06/15 06:05:40;;;;;;;78.55;53.40;;;20.70;58.10;;;;;;4938088;28;89575;-71
2023/06/15 06:08:06;;;;;;;78.03;53.45;;;20.70;57.90;;;;;;4936963;28;89733;-71
2023/06/15 06:10:32;;;;;;;79.15;53.47;;;20.70;57.90;;;;;;4935951;28;92707;-72
2023/06/15 06:12:58;;;;;;;77.07;53.13;;;20.70;57.80;;;;;;4931500;28;90487;-71
2023/06/15 06:15:23;;;;;;;77.88;53.80;;;20.80;58.10;;;;;;4938958;28;89883;-72
2023/06/15 06:17:49;;;;;;;76.28;53.75;;;20.80;58.30;;;;;;4927047;28;90307;-72
2023/06/15 06:20:15;;;;;;;75.93;53.05;;;20.80;57.60;;;;;;4934501;28;90128;-70
2023/06/15 06:22:41;;;;;;;77.63;53.28;;;20.80;57.70;;;;;;4914750;28;90237;-72
2023/06/15 06:25:07;;;;;;;77.95;53.92;;;20.90;57.40;;;;;;4924887;28;91213;-73
2023/06/15 06:27:33;;;;;;;78.50;53.70;;;20.90;55.70;;;;;;4930197;28;94348;-72
2023/06/15 06:29:59;;;;;;;83.40;53.88;;;21.20;55.40;;;;;;4932954;28;90275;-73
2023/06/15 06:32:25;;;;;;;78.47;53.92;;;21.20;54.90;;;;;;4936664;28;89773;-73
2023/06/15 06:34:50;;;;;;;78.07;54.00;;;21.30;55.50;;;;;;4930920;28;89858;-72
2023/06/15 06:37:16;;;;;;;79.85;53.83;;;21.40;55.40;;;;;;4931499;28;89343;-72
2023/06/15 06:39:42;;;;;;;79.22;54.13;;;21.60;54.60;;;;;;4933967;28;95145;-69
2023/06/15 06:42:08;;;;;;;79.50;53.88;;;21.60;54.40;;;;;;4927315;28;89911;-72
2023/06/15 06:44:33;;;;;;;80.20;53.42;;;21.60;54.70;;;;;;4924765;28;91045;-71
2023/06/15 06:47:01;;;;;;;79.18;54.22;;;21.70;53.90;;;;;;4931713;28;89347;-71
2023/06/15 06:49:27;;;;;;;78.25;53.70;;;21.70;53.80;;;;;;4937362;28;91472;-71
2023/06/15 06:51:52;;;;;;;78.97;54.08;;;21.80;53.90;;;;;;4952858;28;90815;-71
2023/06/15 06:54:18;;;;;;;77.25;53.63;;;21.90;53.70;;;;;;4929970;28;89276;-72
2023/06/15 06:56:44;;;;;;;85.22;54.72;;;22.00;52.50;;;;;;4939724;28;89742;-71
2023/06/15 06:59:09;;;;;;;82.47;54.85;;;22.00;52.40;;;;;;4928823;28;90521;-73
2023/06/15 07:01:35;;;;;;;83.28;55.13;;;22.10;51.50;;;;;;4933801;28;91011;-72
2023/06/15 07:04:01;;;;;;;85.70;54.92;;;22.20;51.60;;;;;;4936693;28;90455;-71
2023/06/15 07:06:26;;;;;;;81.38;54.35;;;22.20;51.20;;;;;;4936165;28;93339;-73
2023/06/15 07:08:52;;;;;;;79.40;54.47;;;22.20;51.20;;;;;;4938940;28;89270;-72
2023/06/15 07:11:18;;;;;;;78.05;53.70;;;22.20;51.00;;;;;;4931259;28;90340;-70
2023/06/15 07:13:44;;;;;;;78.07;54.42;;;22.30;51.00;;;;;;4931022;28;90165;-72
2023/06/15 07:16:09;;;;;;;77.32;54.03;;;22.40;51.20;;;;;;4934639;28;89723;-72
2023/06/15 07:18:35;;;;;;;79.85;54.20;;;22.40;50.50;;;;;;4933448;28;89537;-73
2023/06/15 07:21:00;;;;;;;80.43;54.17;;;22.40;51.00;;;;;;4931797;28;89145;-72
2023/06/15 07:23:26;;;;;;;84.32;54.38;;;22.40;50.70;;;;;;4931749;28;89804;-72
2023/06/15 07:25:53;;;;;;;79.05;54.38;;;22.40;49.50;;;;;;4934041;28;90664;-73
2023/06/15 07:28:19;;;;;;;78.50;54.05;;;22.30;50.60;;;;;;4932001;28;90282;-71
2023/06/15 07:30:48;;;;;;;81.97;54.17;;;22.40;51.00;;;;;;4940175;28;88691;-74
2023/06/15 07:33:14;;;;;;;79.65;54.03;;;22.60;50.00;;;;;;4932281;28;90056;-73
2023/06/15 07:35:39;;;;;;;80.78;54.40;;;22.60;49.10;;;;;;4929506;28;89739;-73
2023/06/15 07:38:05;;;;;;;79.55;54.40;;;22.70;50.00;;;;;;4928766;28;92215;-71
2023/06/15 07:40:31;;;;;;;79.18;54.25;;;22.80;49.70;;;;;;4930748;28;90174;-72
2023/06/15 07:42:56;;;;;;;79.10;54.30;;;22.90;48.80;;;;;;4939706;28;90590;-71
2023/06/15 07:45:22;;;;;;;81.97;54.05;;;22.90;49.00;;;;;;4934962;28;94727;-74
2023/06/15 07:47:48;;;;;;;80.72;53.92;;;22.80;48.30;;;;;;4926235;28;91993;-71
2023/06/15 07:50:13;;;;;;;79.85;54.33;;;22.90;48.50;;;;;;4920578;28;91533;-73
2023/06/15 07:52:39;;;;;;;77.65;54.42;;;23.00;48.90;;;;;;4940913;28;89203;-73
2023/06/15 07:55:06;;;;;;;78.30;54.20;;;22.90;47.70;;;;;;4940011;28;89087;-74
2023/06/15 07:57:32;;;;;;;78.32;54.47;;;23.00;48.80;;;;;;4940658;28;91390;-73
2023/06/15 07:59:58;;;;;;;79.38;54.35;;;23.00;48.40;;;;;;4936357;28;89489;-73
2023/06/15 08:02:24;;;;;;;79.53;54.33;;;23.10;49.10;;;;;;4937830;28;90526;-72
2023/06/15 08:04:50;;;;;;;79.18;54.08;;;23.10;49.30;;;;;;4934367;28;89889;-74
2023/06/15 08:07:16;;;;;;;79.68;54.47;;;23.20;49.20;;;;;;4939532;28;90905;-73
2023/06/15 08:09:42;;;;;;;79.75;54.63;;;23.30;48.40;;;;;;4937156;28;90229;-72
2023/06/15 08:12:09;;;;;;;77.63;54.22;;;23.40;46.20;;;;;;4935126;28;90903;-73
2023/06/15 08:14:37;;;;;;;78.55;54.53;;;23.40;47.70;;;;;;4935571;28;89706;-72
2023/06/15 08:17:03;;;;;;;77.88;54.25;;;23.50;46.80;;;;;;4941771;28;89867;-71
2023/06/15 08:19:29;;;;;;;81.93;54.42;;;23.60;47.40;;;;;;4939983;28;90757;-70
2023/06/15 08:21:55;;;;;;;78.85;54.35;;;23.60;46.60;;;;;;4938501;28;90425;-73
2023/06/15 08:24:20;;;;;;;79.45;54.30;;;23.70;47.10;;;;;;4936892;28;90290;-72
2023/06/15 08:26:48;;;;;;;77.88;53.88;;;23.80;45.70;;;;;;4941364;28;91375;-73
2023/06/15 08:29:14;;;;;;;79.50;53.88;;;23.90;44.20;;;;;;4935194;28;90840;-71
2023/06/15 08:31:40;;;;;;;78.25;54.45;;;23.90;44.30;;;;;;4940650;28;89571;-73
2023/06/15 08:34:09;;;;;;;79.97;54.03;;;23.90;45.50;;;;;;4933669;28;90119;-70
2023/06/15 08:36:35;;;;;;;79.57;54.50;;;23.90;45.50;;;;;;4930898;28;91423;-73
2023/06/15 08:39:01;;;;;;;78.53;53.95;;;24.00;46.00;;;;;;4920870;28;89808;-75
2023/06/15 08:41:27;;;;;;;78.75;54.25;;;24.10;44.50;;;;;;4924846;28;91319;-72
2023/06/15 08:43:54;;;;;;;79.32;54.10;;;24.10;44.40;;;;;;4941416;28;89892;-72
2023/06/15 08:46:21;;;;;;;79.43;54.47;;;24.20;44.80;;;;;;4932690;28;94151;-72
2023/06/15 08:48:50;;;;;;;80.50;54.63;;;24.20;44.60;;;;;;4944389;28;90174;-73
2023/06/15 08:51:16;;;;;;;79.05;54.50;;;24.30;43.60;;;;;;4935167;28;91968;-73
2023/06/15 08:53:43;;;;;;;79.18;54.28;;;24.30;45.20;;;;;;4934619;28;89533;-73
2023/06/15 08:56:13;;;;;;;78.80;54.22;;;24.30;44.60;;;;;;4939247;28;90850;-73
2023/06/15 08:58:49;;;;;;;78.95;54.38;;;24.30;45.50;;;;;;4939564;28;89959;-73
2023/06/15 09:01:22;;;;;;;80.00;54.40;;;24.40;44.80;;;;;;4921950;28;89458;-74
2023/06/15 09:03:54;;;;;;;80.93;54.70;;;24.30;43.90;;;;;;4936136;28;90344;-72
2023/06/15 09:06:21;;;;;;;80.65;54.72;;;24.40;46.70;;;;;;4941003;28;89434;-73
2023/06/15 09:08:48;;;;;;;80.20;54.53;;;24.40;44.40;;;;;;4938078;28;89350;-72
2023/06/15 09:11:14;;;;;;;79.15;54.50;;;24.40;45.80;;;;;;4934376;28;90006;-73
2023/06/15 09:13:41;;;;;;;78.47;54.50;;;24.60;46.80;;;;;;4936861;28;89489;-73
2023/06/15 09:16:08;;;;;;;79.38;54.60;;;24.60;43.10;;;;;;4943575;28;92879;-71
2023/06/15 09:18:53;;;;;;;79.78;54.53;;;24.70;43.80;;;;;;4927881;28;90415;-74
2023/06/15 09:21:23;;;;;;;79.90;54.45;;;24.70;44.00;;;;;;4926983;28;90284;-70
2023/06/15 09:23:49;;;;;;;78.97;54.30;;;24.80;42.70;;;;;;4927133;28;90528;-71
2023/06/15 09:26:28;;;;;;;83.65;55.08;;;24.80;43.50;;;;;;4933371;28;94720;-72
2023/06/15 09:28:55;;;;;;;79.68;54.35;;;24.80;43.50;;;;;;4927486;28;90575;-72
2023/06/15 09:31:35;;;;;;;81.03;54.65;;;24.80;41.50;;;;;;4931084;28;90086;-72
2023/06/15 09:34:08;;;;;;;81.70;54.60;;;24.90;42.80;;;;;;4924897;28;90647;-73
2023/06/15 09:36:48;;;;;;;82.63;54.92;;;24.90;41.40;;;;;;4929354;28;90231;-72
2023/06/15 09:39:15;;;;;;;80.20;54.92;;;25.00;42.90;;;;;;4922251;28;91039;-73
2023/06/15 09:41:53;;;;;;;78.68;54.17;;;25.00;41.40;;;;;;4929168;28;92631;-72
2023/06/15 09:44:21;;;;;;;82.22;55.10;;;25.00;43.40;;;;;;4931146;28;90525;-72
2023/06/15 09:46:50;;;;;;;79.55;54.85;;;25.00;42.20;;;;;;4929975;28;90899;-73
2023/06/15 09:49:28;;;;;;;80.82;54.97;;;25.00;42.50;;;;;;4932792;28;91195;-74
2023/06/15 09:51:55;;;;;;;81.28;55.17;;;25.00;42.70;;;;;;4928294;28;89865;-71
2023/06/15 09:54:28;;;;;;;80.57;55.17;;;25.10;42.30;;;;;;4927263;28;91546;-71
2023/06/15 09:56:54;;;;;;;80.57;54.45;;;25.10;41.70;;;;;;4931263;28;90790;-71
2023/06/15 09:59:21;;;;;;;85.70;54.97;;;25.20;40.90;;;;;;4923588;28;89053;-71
2023/06/15 10:01:48;;;;;;;80.93;54.97;;;25.40;41.80;;;;;;4938260;28;90329;-71
2023/06/15 10:04:16;;;;;;;79.78;54.80;;;25.40;41.30;;;;;;4930763;28;89695;-73
2023/06/15 10:06:45;;;;;;;81.80;54.95;;;25.40;40.70;;;;;;4926413;28;90458;-73
2023/06/15 10:09:14;;;;;;;79.65;54.95;;;25.40;42.70;;;;;;4929514;28;90541;-72
2023/06/15 10:11:43;;;;;;;81.18;54.97;;;25.40;40.60;;;;;;4927232;28;92852;-73
2023/06/15 10:14:22;;;;;;;81.57;55.00;;;25.40;40.40;;;;;;4925562;28;90453;-73
2023/06/15 10:16:54;;;;;;;80.53;55.15;;;25.40;42.70;;;;;;4921343;28;89589;-72
2023/06/15 10:19:23;;;;;;;82.72;55.22;;;25.50;41.50;;;;;;4921251;28;90434;-70
2023/06/15 10:21:50;;;;;;;81.57;55.20;;;25.60;44.00;;;;;;4929170;28;90131;-75
2023/06/15 10:24:19;;;;;;;85.65;55.33;;;25.60;43.50;;;;;;4930306;28;88928;-75
2023/06/15 10:26:44;;;;;;;80.60;55.33;;;25.60;42.00;;;;;;4942567;28;92178;-74
2023/06/15 10:29:20;;;;;;;80.15;54.90;;;25.70;40.30;;;;;;4924774;28;90043;-73
2023/06/15 10:31:49;;;;;;;79.65;55.22;;;25.70;40.10;;;;;;4931921;28;90838;-74
2023/06/15 10:34:54;;;;;;;80.63;55.20;;;25.70;40.40;;;;;;4932220;28;94631;-73
2023/06/15 10:37:26;;;;;;;80.93;55.08;;;25.70;40.60;;;;;;4898632;28;91612;-74
2023/06/15 10:39:53;;;;;;;80.15;55.03;;;25.70;39.10;;;;;;4924887;28;90031;-74
2023/06/15 10:42:19;;;;;;;82.57;55.30;;;25.80;39.50;;;;;;4925956;28;89951;-75
2023/06/15 10:44:45;;;;;;;80.60;55.53;;;25.80;39.40;;;;;;4927294;28;90145;-74
2023/06/15 10:47:12;;;;;;;80.63;55.33;;;25.80;38.60;;;;;;4932365;28;90135;-75
2023/06/15 10:49:52;;;;;;;82.13;55.53;;;25.80;40.20;;;;;;4932432;28;90585;-74
2023/06/15 10:52:18;;;;;;;80.75;55.33;;;25.90;38.90;;;;;;4956041;28;91209;-74
2023/06/15 10:54:44;;;;;;;81.03;55.33;;;25.90;38.10;;;;;;4940690;28;89459;-75
2023/06/15 10:57:16;;;;;;;82.47;55.22;;;25.90;37.30;;;;;;4937753;28;93971;-75
2023/06/15 10:59:49;;;;;;;81.75;55.22;;;26.00;38.20;;;;;;4936910;28;90729;-72
2023/06/15 11:02:33;;;;;;;84.40;55.53;;;26.00;40.20;;;;;;4933918;28;89918;-75
2023/06/15 11:05:12;;;;;;;84.80;55.50;;;26.00;37.20;;;;;;4934764;28;89533;-72
2023/06/15 11:07:40;;;;;;;80.40;55.17;;;26.10;36.20;;;;;;4939948;28;90076;-73
2023/06/15 11:10:22;;;;;;;81.57;55.63;;;26.10;37.50;;;;;;4932751;28;90256;-74
2023/06/15 11:13:01;;;;;;;81.25;55.33;;;26.10;37.10;;;;;;4937488;28;89918;-73
2023/06/15 11:15:32;;;;;;;80.95;55.53;;;26.10;36.90;;;;;;4934991;28;88726;-73
2023/06/15 11:18:14;;;;;;;81.90;55.88;;;26.10;39.00;;;;;;4937635;28;90106;-74
2023/06/15 11:20:56;;;;;;;82.90;55.78;;;26.20;41.10;;;;;;4935172;28;92609;-74
2023/06/15 11:23:23;;;;;;;81.68;55.75;;;26.20;37.50;;;;;;4934410;28;91000;-74
2023/06/15 11:25:51;;;;;;;80.65;55.72;;;26.30;37.70;;;;;;4939525;28;90377;-74
2023/06/15 11:28:22;;;;;;;80.85;55.58;;;26.30;39.30;;;;;;4941857;28;90342;-74
2023/06/15 11:30:48;;;;;;;;;;;26.30;37.90;;;;;;4934049;28;91017;-70
2023/06/15 11:33:14;;;;;;;81.43;55.65;;;26.30;41.50;;;;;;4929893;28;91924;-74
2023/06/15 11:35:40;;;;;;;81.07;55.72;;;26.30;38.90;;;;;;4931175;28;90500;-75
2023/06/15 11:38:07;;;;;;;82.65;55.65;;;26.40;38.60;;;;;;4935893;28;90986;-73
2023/06/15 11:40:34;;;;;;;80.25;55.45;;;26.40;39.50;;;;;;4937317;28;92789;-73
2023/06/15 11:43:02;;;;;;;81.50;55.63;;;26.50;39.60;;;;;;4935355;28;89781;-71
2023/06/15 11:45:28;;;;;;;81.05;55.67;;;26.60;36.40;;;;;;4937052;28;89808;-72
2023/06/15 11:47:54;;;;;;;81.82;55.72;;;26.60;37.80;;;;;;4932889;28;91708;-73
2023/06/15 11:50:22;;;;;;;82.45;55.80;;;26.60;37.20;;;;;;4930070;28;92728;-72
2023/06/15 11:52:48;;;;;;;82.38;55.63;;;26.60;38.00;;;;;;4936714;28;89587;-74
2023/06/15 11:55:16;;;;;;;81.32;55.28;;;26.60;39.40;;;;;;4934644;28;90047;-72
2023/06/15 11:57:45;;;;;;;84.78;55.88;;;26.70;39.60;;;;;;4931447;28;92732;-73
2023/06/15 12:00:12;;;;;;;82.05;55.83;;;26.70;37.40;;;;;;4934219;28;89993;-73
2023/06/15 12:02:40;;;;;;;83.88;55.92;;;26.70;39.60;;;;;;4930713;28;95722;-73
2023/06/15 12:05:06;;;;;;;81.57;55.67;;;26.90;37.70;;;;;;4941333;28;88896;-72
2023/06/15 12:07:35;;;;;;;81.47;55.88;;;26.90;36.80;;;;;;4939811;28;90156;-73
2023/06/15 12:10:03;;;;;;;84.20;55.83;;;26.90;37.30;;;;;;4934709;28;90266;-73
2023/06/15 12:12:33;;;;;;;86.30;55.92;;;26.90;39.00;;;;;;4937281;28;90943;-72
2023/06/15 12:15:00;;;;;;;82.37;55.93;;;26.90;37.40;;;;;;4940175;28;91581;-75
2023/06/15 12:17:31;;;;;;;84.35;56.47;;;27.00;38.30;;;;;;4935557;28;90501;-72
2023/06/15 12:20:00;;;;;;;;;;;27.00;38.10;;;;;;4938486;28;91423;-71
2023/06/15 12:22:37;;;;;;;82.43;55.65;;;27.10;39.10;;;;;;4939652;28;90299;-73
2023/06/15 12:25:03;;;;;;;85.88;56.35;;;27.10;39.40;;;;;;4941689;28;90231;-72
2023/06/15 12:27:31;;;;;;;81.22;55.90;;;27.20;37.20;;;;;;4938703;28;90351;-73
2023/06/15 12:30:11;;;;;;;84.05;56.20;;;27.10;38.00;;;;;;4930915;28;94333;-73
2023/06/15 12:32:42;;;;;;;82.90;56.03;;;27.10;37.60;;;;;;4929544;28;89894;-74